Time;durP1;ratioP1;P1;durP2;ratioP2;P2;SDS_P1;SDS_P2;PMS_P1;PMS_P2;Temp;Humidity;BMP_temperature;BMP_pressure;BME280_temperature;BME280_humidity;BME280_pressure;Samples;Min_cycle;Max_cycle;Signal;HPM_P1;HPM_P2
2021/12/01 00:00:51;;;;;;;42.40;39.90;;;;;;;1.64;100.00;100538.00;5053690;28;20064;-80
2021/12/01 00:03:18;;;;;;;42.58;39.97;;;;;;;1.75;100.00;100532.50;5053657;28;20416;-80
2021/12/01 00:05:45;;;;;;;43.28;40.65;;;;;;;1.56;100.00;100531.72;5053947;28;20056;-81
2021/12/01 00:08:13;;;;;;;43.78;41.33;;;;;;;1.60;100.00;100542.69;5053581;28;20052;-78
2021/12/01 00:10:41;;;;;;;43.85;41.35;;;;;;;1.80;100.00;100546.78;5053494;28;20447;-79
2021/12/01 00:13:10;;;;;;;43.40;40.90;;;;;;;1.72;100.00;100545.91;5053867;28;20053;-80
2021/12/01 00:15:37;;;;;;;43.00;40.50;;;;;;;1.76;100.00;100542.84;5053442;28;20382;-80
2021/12/01 00:18:04;;;;;;;42.00;39.47;;;;;;;1.80;100.00;100538.09;5053447;28;20508;-79
2021/12/01 00:20:31;;;;;;;41.08;38.67;;;;;;;1.65;100.00;100539.63;5053618;28;20134;-80
2021/12/01 00:22:59;;;;;;;41.60;39.00;;;;;;;1.57;100.00;100535.16;5053360;28;20053;-80
2021/12/01 00:25:27;;;;;;;42.83;39.70;;;;;;;1.38;100.00;100530.91;5053333;28;20462;-79
2021/12/01 00:27:56;;;;;;;43.10;40.53;;;;;;;1.32;100.00;100537.56;5053279;28;20444;-78
2021/12/01 00:30:24;;;;;;;42.88;40.08;;;;;;;1.11;100.00;100537.03;5053575;28;20114;-78
2021/12/01 00:32:53;;;;;;;44.25;41.55;;;;;;;0.75;100.00;100536.97;5053138;28;20057;-80
2021/12/01 00:35:19;;;;;;;45.13;42.53;;;;;;;0.85;100.00;100536.94;5053212;28;20402;-80
2021/12/01 00:37:46;;;;;;;45.70;43.00;;;;;;;0.80;100.00;100531.31;5053183;28;20052;-81
2021/12/01 00:40:14;;;;;;;45.03;42.25;;;;;;;0.49;100.00;100529.03;5053203;28;20405;-80
2021/12/01 00:42:45;;;;;;;44.90;42.17;;;;;;;0.78;100.00;100528.03;5052773;28;20049;-79
2021/12/01 00:45:16;;;;;;;46.05;43.25;;;;;;;1.15;100.00;100517.47;5053369;28;20171;-79
2021/12/01 00:47:44;;;;;;;45.13;42.53;;;;;;;0.82;100.00;100517.16;5053401;28;20116;-80
2021/12/01 00:50:12;;;;;;;45.42;42.83;;;;;;;0.87;100.00;100517.50;5053362;28;20310;-80
2021/12/01 00:52:39;;;;;;;46.03;43.22;;;;;;;0.66;100.00;100522.19;5053073;28;20099;-78
2021/12/01 00:55:07;;;;;;;45.97;43.25;;;;;;;0.56;100.00;100518.81;5053283;28;20104;-78
2021/12/01 00:57:35;;;;;;;45.15;42.53;;;;;;;0.68;100.00;100512.41;5053200;28;20107;-80
2021/12/01 01:00:04;;;;;;;46.15;43.55;;;;;;;0.64;100.00;100511.06;5052920;28;20495;-79
2021/12/01 01:02:31;;;;;;;47.63;45.03;;;;;;;0.63;100.00;100510.22;5052642;28;20493;-78
2021/12/01 01:04:57;;;;;;;45.92;43.42;;;;;;;0.60;100.00;100505.28;5053336;28;20371;-78
2021/12/01 01:07:24;;;;;;;45.63;42.92;;;;;;;0.76;100.00;100502.03;5052867;28;20053;-81
2021/12/01 01:09:51;;;;;;;45.88;43.17;;;;;;;0.58;100.00;100507.25;5052748;28;20106;-81
2021/12/01 01:18:02;;;;;;;45.03;42.58;;;;;;;0.71;100.00;100499.03;5052946;28;20055;-82
2021/12/01 01:20:29;;;;;;;44.65;42.13;;;;;;;0.78;100.00;100494.84;5053030;28;20053;-78
2021/12/01 01:22:56;;;;;;;45.50;42.90;;;;;;;1.12;100.00;100495.03;5053112;28;20053;-78
2021/12/01 01:25:23;;;;;;;45.08;42.58;;;;;;;0.98;100.00;100485.09;5053131;28;20132;-80
2021/12/01 01:27:50;;;;;;;46.25;43.78;;;;;;;1.29;100.00;100476.84;5053058;28;20053;-79
2021/12/01 01:30:18;;;;;;;46.08;43.40;;;;;;;1.64;100.00;100480.41;5053011;28;20053;-79
2021/12/01 01:32:45;;;;;;;46.78;44.08;;;;;;;1.29;100.00;100474.25;5052835;28;20041;-79
2021/12/01 01:35:12;;;;;;;44.80;42.28;;;;;;;1.72;100.00;100465.53;5052665;28;20053;-80
2021/12/01 01:37:40;;;;;;;44.97;42.47;;;;;;;1.39;100.00;100461.88;5052611;28;20087;-78
2021/12/01 01:40:08;;;;;;;44.88;42.47;;;;;;;1.44;100.00;100456.19;5052546;28;20115;-80
2021/12/01 01:42:35;;;;;;;46.22;43.50;;;;;;;1.20;100.00;100449.81;5052961;28;20464;-80
2021/12/01 01:45:01;;;;;;;45.28;42.78;;;;;;;1.46;100.00;100451.66;5052849;28;20114;-80
2021/12/01 01:47:29;;;;;;;45.45;43.15;;;;;;;1.31;100.00;100446.13;5052573;28;20118;-80
2021/12/01 01:50:00;;;;;;;45.20;42.80;;;;;;;1.26;100.00;100449.19;5052927;28;20045;-78
2021/12/01 01:52:27;;;;;;;43.90;41.50;;;;;;;1.30;100.00;100441.84;5052557;28;20044;-78
2021/12/01 01:54:54;;;;;;;43.35;41.15;;;;;;;1.30;100.00;100436.63;5054571;28;20130;-80
2021/12/01 01:57:21;;;;;;;44.78;42.35;;;;;;;1.10;100.00;100454.31;5056288;28;20049;-80
2021/12/01 01:59:48;;;;;;;43.70;41.20;;;;;;;0.98;100.00;100447.66;5056205;28;20114;-79
2021/12/01 02:02:15;;;;;;;44.05;41.55;;;;;;;0.95;100.00;100443.56;5055636;28;20444;-80
2021/12/01 02:04:44;;;;;;;44.05;41.75;;;;;;;1.00;100.00;100443.09;5056209;28;20056;-80
2021/12/01 02:07:11;;;;;;;44.67;42.08;;;;;;;0.95;100.00;100440.13;5056129;28;20080;-79
2021/12/01 02:09:38;;;;;;;43.88;41.17;;;;;;;0.96;100.00;100436.53;5055758;28;20437;-78
2021/12/01 02:12:07;;;;;;;45.60;42.92;;;;;;;0.71;100.00;100436.28;5056097;28;20053;-78
2021/12/01 02:14:34;;;;;;;44.55;42.05;;;;;;;0.74;100.00;100435.19;5055711;28;20057;-80
2021/12/01 02:17:00;;;;;;;44.67;42.17;;;;;;;0.85;100.00;100429.75;5055661;28;20479;-79
2021/12/01 02:19:28;;;;;;;42.95;40.55;;;;;;;0.92;100.00;100430.78;5055557;28;20049;-78
2021/12/01 02:21:56;;;;;;;46.22;43.78;;;;;;;1.15;100.00;100433.75;5055556;28;20144;-80
2021/12/01 02:24:24;;;;;;;44.22;41.83;;;;;;;0.96;100.00;100420.81;5055563;28;20052;-80
2021/12/01 02:26:52;;;;;;;43.53;41.13;;;;;;;0.96;100.00;100415.59;5055545;28;20045;-80
2021/12/01 02:29:21;;;;;;;44.25;41.85;;;;;;;1.16;100.00;100409.22;5055517;28;20156;-78
2021/12/01 02:31:50;;;;;;;43.17;40.90;;;;;;;1.06;100.00;100398.84;5055566;28;20059;-80
2021/12/01 02:34:19;;;;;;;44.15;41.75;;;;;;;1.05;100.00;100397.19;5055430;28;20049;-79
2021/12/01 02:36:47;;;;;;;44.83;42.53;;;;;;;1.27;100.00;100395.06;5055336;28;20395;-80
2021/12/01 02:39:16;;;;;;;42.90;40.55;;;;;;;1.15;100.00;100394.53;5055197;28;20458;-80
2021/12/01 02:41:45;;;;;;;41.35;39.25;;;;;;;1.34;100.00;100398.72;5055510;28;20128;-79
2021/12/01 02:44:16;;;;;;;42.13;39.83;;;;;;;1.44;100.00;100396.00;5055016;28;20551;-79
2021/12/01 02:46:43;;;;;;;41.73;39.53;;;;;;;1.20;100.00;100394.84;5055449;28;20045;-78
2021/12/01 02:49:11;;;;;;;41.38;39.22;;;;;;;1.47;100.00;100383.41;5055187;28;20148;-81
2021/12/01 02:51:38;;;;;;;42.50;40.30;;;;;;;1.28;100.00;100396.72;5055326;28;20468;-81
2021/12/01 02:54:05;;;;;;;43.38;41.08;;;;;;;1.25;100.00;100391.78;5055280;28;20191;-78
2021/12/01 02:56:34;;;;;;;43.15;40.85;;;;;;;1.21;100.00;100399.13;5054810;28;20060;-80
2021/12/01 02:59:03;;;;;;;43.72;41.42;;;;;;;1.19;100.00;100397.66;5055055;28;20119;-80
2021/12/01 03:01:30;;;;;;;43.30;41.10;;;;;;;1.16;100.00;100392.72;5167627;22;20061;-79
2021/12/01 03:04:00;;;;;;;45.05;42.55;;;;;;;1.13;100.00;100392.03;5053838;28;20492;-81
2021/12/01 03:06:28;;;;;;;44.47;41.97;;;;;;;1.10;100.00;100399.38;5054099;28;20477;-78
2021/12/01 03:08:57;;;;;;;43.50;41.30;;;;;;;1.01;100.00;100397.66;5054172;28;20131;-78
2021/12/01 03:11:25;;;;;;;44.22;41.72;;;;;;;1.09;100.00;100395.94;5054548;28;20053;-79
2021/12/01 03:13:53;;;;;;;46.95;44.55;;;;;;;1.05;100.00;100388.53;5054852;28;20056;-78
2021/12/01 03:16:20;;;;;;;45.75;43.53;;;;;;;1.34;100.00;100401.34;5054930;28;20053;-78
2021/12/01 03:18:47;;;;;;;48.33;45.92;;;;;;;1.12;100.00;100406.09;5054460;28;20060;-79
2021/12/01 03:21:15;;;;;;;46.30;44.05;;;;;;;1.16;100.00;100404.00;5054400;28;20417;-78
2021/12/01 03:23:42;;;;;;;45.28;42.97;;;;;;;1.22;100.00;100406.00;5054435;28;20049;-79
2021/12/01 03:26:11;;;;;;;43.97;41.67;;;;;;;1.43;100.00;100403.03;5054315;28;20369;-80
2021/12/01 03:28:39;;;;;;;45.88;43.65;;;;;;;1.66;100.00;100411.16;5054350;28;20052;-80
2021/12/01 03:31:07;;;;;;;44.60;42.30;;;;;;;1.64;100.00;100407.91;5054312;28;20539;-78
2021/12/01 03:33:34;;;;;;;44.40;42.20;;;;;;;1.89;100.00;100406.22;5054271;28;20099;-78
2021/12/01 03:36:01;;;;;;;44.53;42.22;;;;;;;1.96;100.00;100402.00;5054163;28;20053;-78
2021/12/01 03:38:28;;;;;;;42.90;40.70;;;;;;;2.38;100.00;100395.09;5054041;28;20057;-79
2021/12/01 03:40:56;;;;;;;43.15;40.97;;;;;;;1.68;100.00;100405.78;5054316;28;20103;-79
2021/12/01 03:43:23;;;;;;;44.33;42.13;;;;;;;1.85;100.00;100399.66;5054333;28;20103;-79
2021/12/01 03:45:50;;;;;;;44.42;42.22;;;;;;;1.80;100.00;100400.13;5054250;28;20109;-80
2021/12/01 03:48:18;;;;;;;43.67;41.58;;;;;;;2.03;100.00;100392.53;5054175;28;20105;-80
2021/12/01 03:50:49;;;;;;;45.55;42.95;;;;;;;1.92;100.00;100405.09;5054258;28;20049;-81
2021/12/01 03:53:17;;;;;;;45.33;43.03;;;;;;;2.06;100.00;100402.69;5054142;28;20132;-81
2021/12/01 03:55:43;;;;;;;44.63;42.42;;;;;;;2.07;100.00;100408.75;5053894;28;20473;-79
2021/12/01 03:58:10;;;;;;;44.80;42.60;;;;;;;2.50;100.00;100410.34;5054087;28;20053;-80
2021/12/01 04:00:37;;;;;;;42.88;40.65;;;;;;;2.44;100.00;100408.38;5052894;28;20044;-78
2021/12/01 04:03:04;;;;;;;42.05;39.85;;;;;;;2.40;100.00;100399.19;5053381;28;20111;-80
2021/12/01 04:05:33;;;;;;;43.97;41.72;;;;;;;2.45;100.00;100406.56;5053623;28;20053;-79
2021/12/01 04:08:01;;;;;;;43.05;40.95;;;;;;;2.33;100.00;100413.94;5053940;28;20048;-81
2021/12/01 04:10:29;;;;;;;42.28;39.97;;;;;;;2.45;100.00;100417.91;5053601;28;20401;-79
2021/12/01 04:12:56;;;;;;;41.38;39.38;;;;;;;2.57;100.00;100415.75;5053561;28;20049;-80
2021/12/01 04:15:23;;;;;;;40.63;38.53;;;;;;;2.50;100.00;100420.03;5053507;28;20048;-79
2021/12/01 04:17:50;;;;;;;44.75;42.55;;;;;;;2.41;100.00;100415.75;5053087;28;20045;-78
2021/12/01 04:20:18;;;;;;;48.42;46.13;;;;;;;2.43;100.00;100419.84;5053635;28;20110;-78
2021/12/01 04:22:49;;;;;;;46.15;43.85;;;;;;;2.79;100.00;100421.41;5053389;28;20422;-80
2021/12/01 04:25:16;;;;;;;43.35;41.25;;;;;;;2.31;100.00;100415.88;5053369;28;20379;-80
2021/12/01 04:27:43;;;;;;;43.50;41.40;;;;;;;2.40;100.00;100417.53;5053330;28;20480;-80
2021/12/01 04:30:12;;;;;;;43.88;41.70;;;;;;;2.24;100.00;100401.75;5053553;28;20057;-80
2021/12/01 04:32:40;;;;;;;44.67;42.38;;;;;;;2.44;100.00;100399.69;5053566;28;20049;-79
2021/12/01 04:35:08;;;;;;;47.45;45.05;;;;;;;2.43;100.00;100395.44;5053290;28;20500;-80
2021/12/01 04:37:36;;;;;;;45.00;42.72;;;;;;;2.85;100.00;100381.41;5053246;28;20528;-79
2021/12/01 04:40:05;;;;;;;46.33;43.92;;;;;;;2.59;100.00;100381.53;5053166;28;20488;-78
2021/12/01 04:42:32;;;;;;;45.75;43.47;;;;;;;2.72;100.00;100387.94;5053477;28;20052;-78
2021/12/01 04:44:59;;;;;;;46.65;43.97;;;;;;;3.16;100.00;100394.66;5053304;28;20064;-80
2021/12/01 04:47:28;;;;;;;44.08;41.97;;;;;;;2.67;100.00;100381.56;5053207;28;20063;-78
2021/12/01 04:49:56;;;;;;;43.67;41.53;;;;;;;3.30;100.00;100387.91;5052556;28;20500;-79
2021/12/01 04:52:22;;;;;;;44.13;42.03;;;;;;;3.07;100.00;100390.41;5052442;28;20444;-81
2021/12/01 04:54:49;;;;;;;45.30;43.10;;;;;;;3.68;100.00;100400.31;5052525;28;20053;-80
2021/12/01 04:57:18;;;;;;;44.00;41.70;;;;;;;3.62;100.00;100403.59;5052772;28;20049;-79
2021/12/01 04:59:45;;;;;;;43.72;41.47;;;;;;;3.44;100.00;100398.56;5053280;28;20131;-80
2021/12/01 05:02:12;;;;;;;42.55;40.35;;;;;;;3.20;100.00;100395.97;5051643;28;20138;-79
2021/12/01 05:04:41;;;;;;;43.53;41.22;;;;;;;3.18;100.00;100401.41;5053243;28;20115;-80
2021/12/01 05:07:08;;;;;;;43.70;41.28;;;;;;;3.10;100.00;100396.16;5053310;28;20068;-79
2021/12/01 05:09:34;;;;;;;44.60;42.30;;;;;;;3.02;100.00;100398.75;5052856;28;20469;-79
2021/12/01 05:12:01;;;;;;;43.10;40.95;;;;;;;3.62;100.00;100400.16;5053212;28;20049;-78
2021/12/01 05:14:30;;;;;;;43.55;41.25;;;;;;;3.08;100.00;100405.97;5053189;28;20068;-78
2021/12/01 05:16:56;;;;;;;44.08;41.72;;;;;;;3.16;100.00;100416.47;5053183;28;20123;-80
2021/12/01 05:19:23;;;;;;;44.20;42.00;;;;;;;2.88;100.00;100425.66;5053031;28;20114;-81
2021/12/01 05:21:50;;;;;;;42.92;40.75;;;;;;;3.51;100.00;100439.91;5052769;28;20103;-79
2021/12/01 05:24:17;;;;;;;43.65;41.28;;;;;;;3.04;100.00;100444.03;5052830;28;20110;-79
2021/12/01 05:26:43;;;;;;;47.13;43.92;;;;;;;3.05;100.00;100452.72;5053062;28;20057;-79
2021/12/01 05:29:10;;;;;;;49.97;46.58;;;;;;;3.14;100.00;100452.56;5055085;28;20045;-78
2021/12/01 05:31:39;;;;;;;43.25;41.15;;;;;;;3.74;100.00;100459.22;5056851;28;20049;-80
2021/12/01 05:34:06;;;;;;;44.13;41.92;;;;;;;3.19;100.00;100463.38;5056395;28;20045;-80
2021/12/01 05:36:32;;;;;;;44.42;42.13;;;;;;;3.64;100.00;100455.97;5056442;28;20057;-78
2021/12/01 05:38:59;;;;;;;43.88;41.60;;;;;;;3.31;100.00;100460.44;5056307;28;20060;-80
2021/12/01 05:41:26;;;;;;;43.13;40.75;;;;;;;3.29;100.00;100462.41;5056306;28;20452;-80
2021/12/01 05:43:53;;;;;;;43.75;41.25;;;;;;;3.15;100.00;100472.59;5056664;28;20049;-81
2021/12/01 05:46:20;;;;;;;43.22;40.80;;;;;;;3.33;100.00;100461.06;5056557;28;20041;-80
2021/12/01 05:48:51;;;;;;;40.97;38.67;;;;;;;3.32;100.00;100472.56;5056213;28;20107;-79
2021/12/01 05:51:19;;;;;;;41.03;38.72;;;;;;;3.24;100.00;100467.31;5056235;28;20143;-80
2021/12/01 05:53:45;;;;;;;43.03;40.72;;;;;;;3.58;100.00;100464.53;5056406;28;20166;-80
2021/12/01 05:56:12;;;;;;;42.38;40.08;;;;;;;3.21;100.00;100466.69;5056397;28;20049;-80
2021/12/01 05:58:39;;;;;;;64.35;60.15;;;;;;;4.47;100.00;100462.59;5055983;28;20551;-79
2021/12/01 06:01:06;;;;;;;66.10;61.13;;;;;;;3.95;100.00;100461.31;5054646;28;20041;-81
2021/12/01 06:03:33;;;;;;;72.72;66.63;;;;;;;4.20;100.00;100461.22;5056155;28;20139;-80
2021/12/01 06:06:01;;;;;;;72.40;66.50;;;;;;;4.12;100.00;100451.59;5056089;28;20106;-81
2021/12/01 06:08:28;;;;;;;72.90;67.03;;;;;;;4.23;100.00;100450.38;5055776;28;20547;-80
2021/12/01 06:10:55;;;;;;;69.95;64.55;;;;;;;3.85;100.00;100469.41;5055802;28;20493;-80
2021/12/01 06:13:24;;;;;;;70.93;65.22;;;;;;;4.84;100.00;100456.63;5055736;28;20103;-79
2021/12/01 06:15:51;;;;;;;76.05;69.75;;;;;;;3.71;100.00;100459.56;5055988;28;20404;-81
2021/12/01 06:18:19;;;;;;;73.60;67.40;;;;;;;3.60;100.00;100470.41;5055830;28;20048;-80
2021/12/01 06:20:47;;;;;;;74.35;67.72;;;;;;;4.30;100.00;100459.25;5055818;28;20436;-80
2021/12/01 06:23:15;;;;;;;71.00;65.00;;;;;;;4.16;100.00;100454.69;5055907;28;20053;-80
2021/12/01 06:25:42;;;;;;;71.60;65.43;;;;;;;4.48;100.00;100456.34;5055838;28;20052;-81
2021/12/01 06:28:09;;;;;;;74.85;68.47;;;;;;;4.07;100.00;100441.56;5055498;28;20130;-80
2021/12/01 06:30:37;;;;;;;75.25;68.40;;;;;;;4.24;100.00;100442.34;5055476;28;20056;-81
2021/12/01 06:33:04;;;;;;;73.22;67.13;;;;;;;3.86;100.00;100451.81;5055669;28;20055;-79
2021/12/01 06:35:31;;;;;;;71.72;65.57;;;;;;;3.93;100.00;100470.34;5055401;28;20049;-80
2021/12/01 06:37:58;;;;;;;74.38;68.18;;;;;;;5.22;100.00;100457.50;5055321;28;20049;-78
2021/12/01 06:40:26;;;;;;;71.32;65.25;;;;;;;4.83;100.00;100465.50;5054880;28;20045;-80
2021/12/01 06:42:54;;;;;;;75.25;68.95;;;;;;;5.16;100.00;100466.09;5055439;28;20144;-80
2021/12/01 06:45:21;;;;;;;74.72;68.22;;;;;;;4.58;100.00;100470.09;5055446;28;20052;-80
2021/12/01 06:47:48;;;;;;;67.32;62.22;;;;;;;4.67;100.00;100478.78;5055169;28;20492;-81
2021/12/01 06:50:16;;;;;;;71.07;65.30;;;;;;;4.77;100.00;100487.25;5055734;28;20063;-78
2021/12/01 06:52:43;;;;;;;69.53;63.83;;;;;;;4.57;100.00;100479.81;5055016;28;20114;-80
2021/12/01 06:55:11;;;;;;;66.75;61.65;;;;;;;5.41;100.00;100494.88;5055352;28;20049;-79
2021/12/01 06:57:39;;;;;;;70.63;64.40;;;;;;;5.20;100.00;100492.88;5055237;28;20110;-80
2021/12/01 07:00:10;;;;;;;70.68;64.57;;;;;;;4.73;100.00;100510.47;5055156;28;20053;-81
2021/12/01 07:02:37;;;;;;;70.53;64.53;;;;;;;5.39;100.00;100502.16;5053465;28;20146;-79
2021/12/01 07:05:05;;;;;;;72.22;66.22;;;;;;;5.67;100.00;100507.66;5054998;28;20126;-81
2021/12/01 07:07:31;;;;;;;70.63;64.72;;;;;;;5.24;100.00;100500.28;5055112;28;20049;-79
2021/12/01 07:09:58;;;;;;;67.53;62.17;;;;;;;4.86;100.00;100507.28;5054920;28;20057;-79
2021/12/01 07:12:25;;;;;;;67.70;62.15;;;;;;;5.02;100.00;100506.34;5054828;28;20053;-80
2021/12/01 07:14:53;;;;;;;65.97;60.80;;;;;;;5.28;100.00;100511.28;5054489;28;20048;-80
2021/12/01 07:17:20;;;;;;;67.60;62.13;;;;;;;6.11;100.00;100520.94;5054535;28;20459;-81
2021/12/01 07:19:48;;;;;;;66.80;61.55;;;;;;;5.82;100.00;100515.59;5054752;28;20106;-80
2021/12/01 07:22:15;;;;;;;68.13;62.67;;;;;;;6.57;100.00;100514.63;5054448;28;20052;-79
2021/12/01 07:24:43;;;;;;;68.70;62.90;;;;;;;6.58;100.00;100517.06;5054430;28;20111;-79
2021/12/01 07:27:10;;;;;;;69.70;63.80;;;;;;;6.66;100.00;100526.72;5054443;28;20049;-81
2021/12/01 07:29:37;;;;;;;69.47;63.58;;;;;;;6.40;100.00;100527.19;5054310;28;20117;-79
2021/12/01 07:32:06;;;;;;;70.25;64.15;;;;;;;6.21;100.00;100522.50;5054292;28;20059;-78
2021/12/01 07:34:41;;;;;;;69.82;63.83;;;;;;;5.23;100.00;100522.34;5054579;28;20467;-80
2021/12/01 07:37:07;;;;;;;69.07;63.17;;;;;;;5.22;100.00;100525.97;5054507;28;20072;-80
2021/12/01 07:39:34;;;;;;;68.90;63.10;;;;;;;5.07;100.00;100522.44;5054065;28;20095;-80
2021/12/01 07:42:01;;;;;;;72.97;66.78;;;;;;;5.38;100.00;100529.47;5053961;28;20416;-79
2021/12/01 07:44:28;;;;;;;71.75;65.65;;;;;;;5.32;100.00;100538.06;5054031;28;20139;-80
2021/12/01 07:46:55;;;;;;;71.80;65.65;;;;;;;5.21;100.00;100526.97;5054347;28;20053;-80
2021/12/01 07:49:23;;;;;;;71.78;65.68;;;;;;;5.63;100.00;100523.00;5053674;28;20471;-80
2021/12/01 07:51:50;;;;;;;72.00;65.90;;;;;;;5.34;100.00;100520.28;5053333;28;20048;-81
2021/12/01 07:54:17;;;;;;;74.13;67.93;;;;;;;5.50;100.00;100531.50;5054081;28;20048;-80
2021/12/01 07:56:44;;;;;;;71.20;65.20;;;;;;;6.32;100.00;100536.00;5054089;28;20049;-79
2021/12/01 07:59:14;;;;;;;72.47;66.15;;;;;;;5.83;100.00;100551.50;5054069;28;20048;-80
2021/12/01 08:01:42;;;;;;;71.85;65.95;;;;;;;5.52;100.00;100541.88;5052465;28;20053;-81
2021/12/01 08:04:08;;;;;;;67.55;62.42;;;;;;;6.13;100.00;100539.19;5053720;28;20477;-80
2021/12/01 08:06:37;;;;;;;70.53;64.75;;;;;;;5.00;100.00;100539.94;5053924;28;20110;-80
2021/12/01 08:09:05;;;;;;;72.47;66.30;;;;;;;5.35;100.00;100543.00;5053914;28;20044;-80
2021/12/01 08:11:31;;;;;;;74.32;67.82;;;;;;;5.60;100.00;100551.50;5053908;28;20083;-79
2021/12/01 08:13:58;;;;;;;75.18;68.88;;;;;;;5.60;100.00;100556.78;5053585;28;20106;-79
2021/12/01 08:16:25;;;;;;;70.05;64.25;;;;;;;5.37;100.00;100565.53;5053808;28;20053;-79
2021/12/01 08:18:54;;;;;;;74.93;68.65;;;;;;;5.97;100.00;100561.28;5053708;28;20057;-80
2021/12/01 08:21:21;;;;;;;70.97;64.93;;;;;;;6.46;100.00;100567.88;5053097;28;20154;-79
2021/12/01 08:23:49;;;;;;;73.63;67.32;;;;;;;6.42;100.00;100564.78;5053408;28;20048;-80
2021/12/01 08:26:16;;;;;;;72.30;66.05;;;;;;;5.72;100.00;100563.31;5053456;28;20083;-78
2021/12/01 08:28:45;;;;;;;72.45;66.07;;;;;;;5.30;100.00;100554.06;5053646;28;20060;-81
2021/12/01 08:31:12;;;;;;;76.05;69.47;;;;;;;5.81;100.00;100561.38;5053370;28;20048;-79
2021/12/01 08:33:39;;;;;;;75.90;69.57;;;;;;;5.42;100.00;100550.03;5053212;28;20114;-81
2021/12/01 08:36:06;;;;;;;76.97;70.28;;;;;;;5.44;100.00;100561.19;5053679;28;20060;-79
2021/12/01 08:38:33;;;;;;;74.20;67.90;;;;;;;5.43;100.00;100550.84;5053617;28;20122;-80
2021/12/01 08:41:07;;;;;;;73.72;67.40;;;;;;;5.88;100.00;100563.13;5053135;28;20473;-80
2021/12/01 08:43:35;;;;;;;71.57;65.75;;;;;;;6.17;100.00;100561.56;5053512;28;20114;-82
2021/12/01 08:46:02;;;;;;;75.03;68.78;;;;;;;5.58;100.00;100564.88;5053123;28;20053;-81
2021/12/01 08:48:29;;;;;;;73.57;67.57;;;;;;;6.30;100.00;100567.03;5053433;28;20107;-79
2021/12/01 08:51:03;;;;;;;71.45;65.68;;;;;;;6.89;100.00;100558.25;5053141;28;20083;-81
2021/12/01 08:53:30;;;;;;;72.88;66.68;;;;;;;6.25;100.00;100552.75;5053440;28;20136;-79
2021/12/01 08:55:58;;;;;;;75.78;69.38;;;;;;;5.59;100.00;100550.69;5053147;28;20401;-80
2021/12/01 08:58:26;;;;;;;71.03;65.13;;;;;;;6.54;100.00;100560.69;5052987;28;20495;-79
2021/12/01 09:00:54;;;;;;;74.22;68.13;;;;;;;7.05;100.00;100554.56;5053191;28;20060;-80
2021/12/01 09:03:22;;;;;;;70.47;64.68;;;;;;;7.39;100.00;100553.09;5052808;28;20126;-79
2021/12/01 09:05:49;;;;;;;73.20;67.00;;;;;;;7.06;100.00;100570.22;5057132;28;20489;-80
2021/12/01 09:08:20;;;;;;;70.75;64.95;;;;;;;7.09;100.00;100561.94;5057422;28;20053;-79
2021/12/01 09:10:48;;;;;;;69.57;63.90;;;;;;;7.72;100.00;100566.63;5056965;28;20080;-80
2021/12/01 09:13:16;;;;;;;72.75;66.68;;;;;;;6.82;100.00;100568.75;5056938;28;20049;-81
2021/12/01 09:15:44;;;;;;;72.93;66.55;;;;;;;7.46;100.00;100565.34;5057495;28;20060;-82
2021/12/01 09:18:12;;;;;;;76.20;69.70;;;;;;;7.72;100.00;100558.69;5057111;28;20126;-80
2021/12/01 09:20:39;;;;;;;72.68;66.68;;;;;;;8.57;100.00;100554.19;5057084;28;20057;-79
2021/12/01 09:23:06;;;;;;;75.30;69.13;;;;;;;7.80;100.00;100563.81;5057048;28;20121;-80
2021/12/01 09:25:34;;;;;;;73.85;67.85;;;;;;;8.17;100.00;100551.25;5056995;28;20056;-80
2021/12/01 09:28:02;;;;;;;77.20;71.00;;;;;;;8.25;100.00;100549.28;5056961;28;20080;-80
2021/12/01 09:30:29;;;;;;;71.05;65.47;;;;;;;8.45;100.00;100543.31;5056619;28;20132;-82
2021/12/01 09:32:57;;;;;;;69.68;64.07;;;;;;;8.62;100.00;100539.34;5056507;28;20448;-80
2021/12/01 09:35:24;;;;;;;73.32;67.20;;;;;;;8.75;100.00;100541.22;5056565;28;20045;-79
2021/12/01 09:37:51;;;;;;;75.53;69.43;;;;;;;9.18;100.00;100535.63;5056775;28;20463;-81
2021/12/01 09:40:19;;;;;;;75.22;69.03;;;;;;;8.82;100.00;100522.69;5056889;28;20129;-81
2021/12/01 09:42:49;;;;;;;72.05;66.18;;;;;;;8.48;100.00;100530.50;5057023;28;20049;-80
2021/12/01 09:45:20;;;;;;;74.00;67.90;;;;;;;9.32;100.00;100510.78;5058073;28;20103;-80
2021/12/01 09:47:50;;;;;;;74.60;68.80;;;;;;;9.67;100.00;100515.06;5058815;28;20056;-80
2021/12/01 09:50:19;;;;;;;70.60;65.05;;;;;;;10.01;100.00;100512.16;5057893;28;20056;-80
2021/12/01 09:52:47;;;;;;;70.45;64.72;;;;;;;9.44;100.00;100510.16;5057320;28;20048;-80
2021/12/01 09:55:16;;;;;;;70.45;64.78;;;;;;;9.74;100.00;100524.66;5057811;28;20053;-80
2021/12/01 09:57:58;;;;;;;70.93;65.15;;;;;;;10.47;100.00;100513.94;5057591;28;20059;-80
2021/12/01 10:00:25;;;;;;;72.93;67.03;;;;;;;10.43;100.00;100507.41;5058064;28;20057;-80
2021/12/01 10:02:52;;;;;;;71.57;66.00;;;;;;;10.36;100.00;100511.09;5055644;28;20060;-79
2021/12/01 10:05:51;;;;;;;70.45;64.88;;;;;;;9.53;100.00;100511.59;5057479;28;20045;-80
2021/12/01 10:08:20;;;;;;;72.32;66.72;;;;;;;9.88;100.00;100504.25;5057550;28;20053;-78
2021/12/01 10:10:47;;;;;;;71.40;65.90;;;;;;;10.64;100.00;100518.75;5057683;28;20056;-81
2021/12/01 10:13:14;;;;;;;71.18;65.78;;;;;;;10.08;100.00;100518.28;5056993;28;20133;-78
2021/12/01 10:15:41;;;;;;;73.38;67.78;;;;;;;10.28;100.00;100514.78;5054730;28;20106;-81
2021/12/01 10:18:12;;;;;;;76.93;71.13;;;;;;;10.34;100.00;100529.88;5055019;28;20057;-81
2021/12/01 10:20:39;;;;;;;77.63;71.63;;;;;;;10.58;100.00;100532.88;5055816;28;20174;-80
2021/12/01 10:23:12;;;;;;;75.53;69.53;;;;;;;10.26;100.00;100522.97;5055939;28;20410;-81
2021/12/01 10:25:39;;;;;;;76.78;70.47;;;;;;;9.84;100.00;100521.59;5055965;28;20053;-79
2021/12/01 10:28:05;;;;;;;83.57;76.68;;;;;;;9.71;100.00;100532.19;5055783;28;20496;-79
2021/12/01 10:30:40;;;;;;;75.72;68.70;;;;;;;10.08;100.00;100536.88;5055798;28;20063;-80
2021/12/01 10:33:09;;;;;;;74.45;67.93;;;;;;;9.98;100.00;100519.72;5055482;28;20102;-79
2021/12/01 10:35:37;;;;;;;73.45;67.00;;;;;;;9.99;100.00;100526.69;5055730;28;20064;-80
2021/12/01 10:38:06;;;;;;;76.97;70.50;;;;;;;10.11;100.00;100518.91;5055478;28;20045;-79
2021/12/01 10:40:35;;;;;;;73.13;67.03;;;;;;;10.36;100.00;100535.81;5055625;28;20049;-80
2021/12/01 10:43:05;;;;;;;70.45;64.57;;;;;;;10.84;100.00;100524.00;5055228;28;20375;-80
2021/12/01 10:45:34;;;;;;;72.75;66.75;;;;;;;10.27;100.00;100529.91;5055455;28;20522;-78
2021/12/01 10:48:02;;;;;;;73.35;67.25;;;;;;;10.24;100.00;100524.19;5055527;28;20083;-78
2021/12/01 10:50:31;;;;;;;70.15;64.30;;;;;;;10.03;100.00;100515.44;5055487;28;20110;-80
2021/12/01 10:53:04;;;;;;;69.93;64.35;;;;;;;10.22;100.00;100524.38;5055043;28;20531;-78
2021/12/01 10:55:32;;;;;;;73.95;67.80;;;;;;;10.87;100.00;100528.88;5055208;28;20049;-79
2021/12/01 10:58:04;;;;;;;73.15;67.13;;;;;;;10.54;100.00;100521.88;5055406;28;20148;-79
2021/12/01 11:00:32;;;;;;;;;;;;;;;10.44;100.00;100521.47;5055382;28;20053;-78
2021/12/01 11:03:10;;;;;;;77.38;70.80;;;;;;;9.99;100.00;100534.66;5053668;28;19921;-82
2021/12/01 11:05:39;;;;;;;70.68;64.57;;;;;;;10.44;100.00;100529.44;5055129;28;20053;-79
2021/12/01 11:08:14;;;;;;;73.00;67.15;;;;;;;10.86;100.00;100519.25;5054869;28;20439;-79
2021/12/01 11:10:42;;;;;;;75.47;69.43;;;;;;;10.28;100.00;100520.91;5054699;28;20053;-79
2021/12/01 11:13:10;;;;;;;76.95;70.78;;;;;;;10.60;100.00;100515.72;5054750;28;20095;-81
2021/12/01 11:15:39;;;;;;;81.50;75.07;;;;;;;11.15;100.00;100513.38;5054777;28;20049;-79
2021/12/01 11:18:08;;;;;;;77.03;70.80;;;;;;;10.45;100.00;100521.28;5054879;28;20049;-79